Talkeetna, AK

9:20 AM AKST on November 22, 2014 (GMT -0900)
Talkeetna | Change Station
CLOSE
Current Station
Airport
Location: Talkeetna,
Elevation: 358 ft
Nearby Weather Stations
Active Advisory: Special Statement Active Notice: Record Report

Elev 358 ft 62.32 °N, 150.09 °W | Updated 27 minutes ago

Mostly Cloudy
Mostly Cloudy
31 °F
Feels Like 23 °F
N
9
Wind Variable Wind from NNE

Today
High -- | Low -- °F
--% Chance of Precip.
Yesterday
High -- | Low -- °F
Precip. -- in
9:32 AM 3:58 PM
New Moon, 0% visible
Pressure 29.15 in
Visibility 10.0 miles
Clouds Scattered Clouds 4400 ft
Mostly Cloudy 6000 ft
Windchill 23 °F
Dew Point 19 °F
Humidity 61%
Rainfall 0.00 in
Snow Depth Not available.
UV 0 out of 12
Pollen Not available.
Air Quality Not available.
Flu Activity Not available.
METAR PATK 221753Z 02008KT 10SM SCT044 BKN060 M01/M07 A2913 RMK AO2 SLP871 T10061072 10011 21006 51015

More Conditions Fewer Conditions

Pressure 29.15 in
Visibility 10.0 miles
Clouds Scattered Clouds 4400 ft
Mostly Cloudy 6000 ft
Windchill 23 °F
Dew Point 19 °F
Humidity 61%
Rainfall 0.00 in
Snow Depth Not available.
UV 0 out of 12
Pollen Not available.
Air Quality Not available.
Flu Activity Not available.
METAR PATK 221753Z 02008KT 10SM SCT044 BKN060 M01/M07 A2913 RMK AO2 SLP871 T10061072 10011 21006 51015

More Conditions Fewer Conditions

10-Day Weather Forecast

Almanac

Astronomy

Nov. 22, 2014 Rise Set
Actual Time
Civil Twilight
Nautical Twilight
Astronomical Twilight
Moon
Length of Visible Light
Length of Day
Tomorrow will be .
, % of the Moon is Illuminated

Today's Extremes

State Highs State Lows

Community

WunderPhotos

Upload Photos

1,772,872 photos uploaded!

WunderBlogs® & News

Nearby

Air Quality

  Air Quality AQ Index Pollutant
Not available.

Snow Depth

Station Depth Elevation

Earthquake Activity

City Distance Mag. Time & Date
Minimum magnitude displayed is 2.5.

Coastal Water Temperatures

Place Temperature

Nearby Weather Stations